Time;durP1;ratioP1;P1;durP2;ratioP2;P2;SDS_P1;SDS_P2;PMS_P1;PMS_P2;Temp;Humidity;BMP_temperature;BMP_pressure;BME280_temperature;BME280_humidity;BME280_pressure;Samples;Min_cycle;Max_cycle;Signal;HPM_P1;HPM_P2
2023/09/07 00:02:31;;;;;;;10.05;6.43;;;;;;;;;;6255260;28;20045;-68
2023/09/07 00:05:42;;;;;;;7.95;6.32;;;;;;;;;;6276539;28;20041;-68
2023/09/07 00:08:45;;;;;;;8.88;6.35;;;;;;;;;;6262472;28;20420;-68
2023/09/07 00:11:48;;;;;;;10.82;5.72;;;;;;;;;;6262709;28;20108;-67
2023/09/07 00:14:50;;;;;;;9.48;7.28;;;;;;;;;;6259169;28;20116;-68
2023/09/07 00:17:52;;;;;;;10.30;6.13;;;;;;;;;;6262677;28;20135;-68
2023/09/07 00:20:54;;;;;;;9.98;6.07;;;;;;;;;;6244270;28;20340;-68
2023/09/07 00:23:56;;;;;;;10.98;6.53;;;;;;;;;;6262244;28;20139;-68
2023/09/07 00:26:58;;;;;;;12.32;7.18;;;;;;;;;;6259165;28;20049;-69
2023/09/07 00:30:02;;;;;;;11.32;6.97;;;;;;;;;;6257173;28;20065;-68
2023/09/07 00:33:04;;;;;;;12.23;7.03;;;;;;;;;;6260452;28;20045;-67
2023/09/07 00:36:07;;;;;;;9.75;7.57;;;;;;;;;;6259596;28;20562;-68
2023/09/07 00:39:09;;;;;;;11.23;8.55;;;;;;;;;;6284455;28;20523;-68
2023/09/07 00:42:11;;;;;;;10.80;8.93;;;;;;;;;;6260768;28;20056;-68
2023/09/07 00:45:13;;;;;;;10.02;7.80;;;;;;;;;;6262365;28;20049;-68
2023/09/07 00:48:18;;;;;;;10.23;8.00;;;;;;;;;;6261310;28;20044;-68
2023/09/07 00:51:20;;;;;;;9.98;7.18;;;;;;;;;;6256952;28;20424;-69
2023/09/07 00:54:22;;;;;;;9.95;7.55;;;;;;;;;;6261524;28;20431;-68
2023/09/07 00:57:25;;;;;;;17.25;8.65;;;;;;;;;;6262006;28;20141;-68
2023/09/07 01:00:27;;;;;;;12.23;7.38;;;;;;;;;;6260200;28;20741;-67
2023/09/07 01:03:29;;;;;;;12.88;8.30;;;;;;;;;;6261689;28;20072;-68
2023/09/07 01:06:36;;;;;;;11.55;8.13;;;;;;;;;;6253960;28;20528;-67
2023/09/07 01:09:40;;;;;;;11.50;8.55;;;;;;;;;;6262448;28;20539;-68
2023/09/07 01:12:42;;;;;;;12.40;8.52;;;;;;;;;;6261605;28;20065;-68
2023/09/07 01:15:44;;;;;;;13.07;9.90;;;;;;;;;;6262685;28;20222;-67
2023/09/07 01:18:47;;;;;;;11.07;7.72;;;;;;;;;;6243699;28;20052;-67
2023/09/07 01:21:49;;;;;;;15.10;8.00;;;;;;;;;;6253104;28;20049;-68
2023/09/07 01:24:52;;;;;;;9.75;8.18;;;;;;;;;;6258493;28;20432;-68
2023/09/07 01:27:54;;;;;;;10.52;8.30;;;;;;;;;;6251376;28;20052;-68
2023/09/07 01:30:57;;;;;;;13.10;9.45;;;;;;;;;;6262322;28;20053;-68
2023/09/07 01:33:59;;;;;;;12.48;9.30;;;;;;;;;;6277320;28;20056;-68
2023/09/07 01:37:02;;;;;;;15.90;8.48;;;;;;;;;;6260487;28;20053;-67
2023/09/07 01:40:07;;;;;;;12.30;8.68;;;;;;;;;;6261332;28;20448;-69
2023/09/07 01:43:09;;;;;;;15.15;8.95;;;;;;;;;;6261376;28;20103;-68
2023/09/07 01:46:11;;;;;;;12.80;9.00;;;;;;;;;;6261629;28;20495;-69
2023/09/07 01:49:13;;;;;;;13.13;9.55;;;;;;;;;;6263990;28;20125;-67
2023/09/07 01:52:15;;;;;;;14.05;8.65;;;;;;;;;;6265989;28;20049;-67
2023/09/07 01:55:17;;;;;;;13.27;9.27;;;;;;;;;;6264601;28;20045;-68
2023/09/07 01:58:20;;;;;;;12.80;8.88;;;;;;;;;;6265082;28;20045;-68
2023/09/07 02:01:23;;;;;;;17.70;8.40;;;;;;;;;;6264557;28;20053;-68
2023/09/07 02:04:25;;;;;;;10.30;9.15;;;;;;;;;;6264935;28;20048;-68
2023/09/07 02:07:28;;;;;;;14.13;9.23;;;;;;;;;;6264622;28;20048;-68
2023/09/07 02:10:30;;;;;;;12.50;8.88;;;;;;;;;;6266286;28;20052;-67
2023/09/07 02:13:32;;;;;;;11.70;9.32;;;;;;;;;;6260397;28;20124;-67
2023/09/07 02:16:35;;;;;;;12.30;8.90;;;;;;;;;;6280654;28;20110;-68
2023/09/07 02:19:37;;;;;;;15.07;9.65;;;;;;;;;;6258284;28;20156;-66
2023/09/07 02:22:39;;;;;;;13.35;9.32;;;;;;;;;;6265541;28;20053;-67
2023/09/07 02:25:42;;;;;;;12.60;8.05;;;;;;;;;;6245069;28;20044;-68
2023/09/07 02:28:44;;;;;;;14.02;9.40;;;;;;;;;;6265382;28;20527;-67
2023/09/07 02:31:46;;;;;;;13.05;9.73;;;;;;;;;;6265040;28;20048;-67
2023/09/07 02:34:48;;;;;;;15.10;9.45;;;;;;;;;;6263654;28;20078;-67
2023/09/07 02:37:50;;;;;;;14.93;9.23;;;;;;;;;;6264061;28;20048;-67
2023/09/07 02:40:53;;;;;;;11.40;8.30;;;;;;;;;;6265081;28;20048;-67
2023/09/07 02:43:55;;;;;;;11.60;9.13;;;;;;;;;;6259861;28;20052;-67
2023/09/07 02:46:57;;;;;;;14.98;8.73;;;;;;;;;;6264839;28;20070;-67
2023/09/07 02:49:59;;;;;;;13.50;9.07;;;;;;;;;;6247468;28;20095;-66
2023/09/07 02:53:04;;;;;;;10.63;8.85;;;;;;;;;;6264588;28;20609;-67
2023/09/07 02:56:07;;;;;;;13.63;9.32;;;;;;;;;;6259508;28;20048;-67
2023/09/07 02:59:10;;;;;;;13.23;8.95;;;;;;;;;;6262851;28;20079;-67
2023/09/07 03:02:12;;;;;;;12.15;9.15;;;;;;;;;;6257715;28;20044;-67
2023/09/07 03:05:15;;;;;;;16.40;8.15;;;;;;;;;;6264077;28;20449;-66
2023/09/07 03:08:18;;;;;;;22.42;9.82;;;;;;;;;;6262520;28;20670;-66
2023/09/07 03:11:21;;;;;;;14.68;11.13;;;;;;;;;;6258274;28;20052;-66
2023/09/07 03:14:24;;;;;;;13.50;11.05;;;;;;;;;;6263095;28;20059;-66
2023/09/07 03:17:27;;;;;;;16.42;10.30;;;;;;;;;;6263324;28;20041;-66
2023/09/07 03:20:33;;;;;;;15.60;10.38;;;;;;;;;;6262177;28;20048;-65
2023/09/07 03:23:39;;;;;;;15.50;10.38;;;;;;;;;;6262657;28;20041;-66
2023/09/07 03:26:43;;;;;;;15.07;12.07;;;;;;;;;;6263327;28;20574;-65
2023/09/07 03:29:45;;;;;;;14.35;9.35;;;;;;;;;;6262031;28;20057;-66
2023/09/07 03:32:48;;;;;;;13.68;9.95;;;;;;;;;;6262287;28;20601;-65
2023/09/07 03:35:51;;;;;;;13.68;10.23;;;;;;;;;;6264293;28;20091;-64
2023/09/07 03:38:54;;;;;;;15.45;11.38;;;;;;;;;;6258208;28;20048;-65
2023/09/07 03:41:56;;;;;;;13.07;10.88;;;;;;;;;;6260268;28;20048;-65
2023/09/07 03:44:58;;;;;;;12.93;10.20;;;;;;;;;;6261583;28;20844;-66
2023/09/07 03:48:01;;;;;;;17.17;12.57;;;;;;;;;;6245332;28;21210;-65
2023/09/07 03:51:06;;;;;;;16.17;10.75;;;;;;;;;;6261757;28;20051;-66
2023/09/07 03:54:08;;;;;;;15.40;10.85;;;;;;;;;;6263286;28;20053;-66
2023/09/07 03:57:10;;;;;;;17.00;10.82;;;;;;;;;;6262238;28;20823;-66
2023/09/07 04:00:14;;;;;;;14.57;11.02;;;;;;;;;;6261322;28;20151;-65
2023/09/07 04:03:21;;;;;;;14.93;10.73;;;;;;;;;;6253495;28;20630;-65
2023/09/07 04:06:24;;;;;;;16.67;11.13;;;;;;;;;;6256986;28;20135;-66
2023/09/07 04:09:26;;;;;;;14.60;11.07;;;;;;;;;;6258929;28;20114;-66
2023/09/07 04:12:28;;;;;;;16.27;12.43;;;;;;;;;;6250542;28;20056;-65
2023/09/07 04:15:31;;;;;;;17.63;13.20;;;;;;;;;;6252520;28;20519;-66
2023/09/07 04:18:34;;;;;;;16.30;11.43;;;;;;;;;;6254442;28;20462;-65
2023/09/07 04:21:37;;;;;;;18.70;13.13;;;;;;;;;;6245785;28;20049;-66
2023/09/07 04:24:39;;;;;;;20.48;15.23;;;;;;;;;;6256380;28;20815;-67
2023/09/07 04:27:43;;;;;;;19.40;13.13;;;;;;;;;;6258109;28;20044;-66
2023/09/07 04:30:45;;;;;;;17.58;12.38;;;;;;;;;;6258391;28;20127;-66
2023/09/07 04:33:47;;;;;;;19.02;12.95;;;;;;;;;;6255521;28;20594;-66
2023/09/07 04:36:49;;;;;;;20.08;12.98;;;;;;;;;;6259691;28;20044;-67
2023/09/07 04:39:54;;;;;;;18.83;12.88;;;;;;;;;;6257309;28;20246;-67
2023/09/07 04:42:58;;;;;;;19.30;13.18;;;;;;;;;;6259562;28;20045;-67
2023/09/07 04:46:00;;;;;;;18.88;13.23;;;;;;;;;;6250182;28;20133;-66
2023/09/07 04:49:02;;;;;;;18.30;12.73;;;;;;;;;;6253773;28;20059;-66
2023/09/07 04:52:05;;;;;;;18.45;14.02;;;;;;;;;;6282417;28;20041;-67
2023/09/07 04:55:07;;;;;;;20.63;14.27;;;;;;;;;;6248071;28;20053;-67
2023/09/07 04:58:10;;;;;;;19.45;13.05;;;;;;;;;;6250688;28;20051;-68
2023/09/07 05:01:12;;;;;;;18.92;13.00;;;;;;;;;;6244332;28;20049;-66
2023/09/07 05:04:16;;;;;;;19.40;12.32;;;;;;;;;;6243871;28;20579;-66
2023/09/07 05:07:18;;;;;;;20.95;13.13;;;;;;;;;;6252224;28;20041;-65
2023/09/07 05:10:20;;;;;;;18.63;13.77;;;;;;;;;;6255487;28;20041;-67
2023/09/07 05:13:24;;;;;;;19.98;14.90;;;;;;;;;;6254406;28;20045;-66
2023/09/07 05:16:26;;;;;;;19.98;14.50;;;;;;;;;;6259962;28;20036;-67
2023/09/07 05:19:28;;;;;;;19.13;13.05;;;;;;;;;;6260225;28;20057;-67
2023/09/07 05:22:34;;;;;;;18.23;11.98;;;;;;;;;;6260608;28;20045;-67
2023/09/07 05:25:43;;;;;;;20.25;11.45;;;;;;;;;;6264203;28;20153;-67
2023/09/07 05:28:45;;;;;;;21.45;13.45;;;;;;;;;;6261080;28;20040;-68
2023/09/07 05:31:49;;;;;;;17.75;12.32;;;;;;;;;;6245942;28;20061;-67
2023/09/07 05:34:51;;;;;;;14.32;12.30;;;;;;;;;;6261784;28;20048;-66
2023/09/07 05:37:53;;;;;;;18.25;11.75;;;;;;;;;;6259340;28;20041;-67
2023/09/07 05:40:55;;;;;;;14.52;10.25;;;;;;;;;;6260846;28;20135;-67
2023/09/07 05:43:58;;;;;;;11.85;9.77;;;;;;;;;;6245908;28;20061;-67
2023/09/07 05:47:02;;;;;;;12.55;9.43;;;;;;;;;;6265051;28;20049;-67
2023/09/07 05:50:05;;;;;;;14.18;9.25;;;;;;;;;;6264441;28;20124;-67
2023/09/07 05:53:07;;;;;;;12.90;10.10;;;;;;;;;;6257337;28;20057;-66
2023/09/07 05:56:09;;;;;;;11.70;8.65;;;;;;;;;;6249970;28;20049;-66
2023/09/07 05:59:12;;;;;;;17.58;7.93;;;;;;;;;;6258109;28;20132;-65
2023/09/07 06:02:33;;;;;;;11.60;7.72;;;;;;;;;;6242591;28;20429;-65
2023/09/07 06:05:36;;;;;;;10.98;9.20;;;;;;;;;;6261023;28;20457;-65
2023/09/07 06:08:39;;;;;;;13.98;7.72;;;;;;;;;;6264126;28;20045;-66
2023/09/07 06:11:42;;;;;;;10.93;8.85;;;;;;;;;;6253236;28;20599;-65
2023/09/07 06:14:46;;;;;;;12.45;8.65;;;;;;;;;;6270495;28;20037;-68
2023/09/07 06:17:49;;;;;;;16.60;9.05;;;;;;;;;;6275037;28;20044;-66
2023/09/07 06:20:52;;;;;;;16.08;10.10;;;;;;;;;;6261302;28;20053;-67
2023/09/07 06:23:55;;;;;;;14.85;8.85;;;;;;;;;;6249676;28;20080;-67
2023/09/07 06:26:57;;;;;;;9.13;7.00;;;;;;;;;;6259732;28;20281;-67
2023/09/07 06:29:59;;;;;;;12.35;7.82;;;;;;;;;;6259116;28;20745;-66
2023/09/07 06:33:01;;;;;;;11.57;7.85;;;;;;;;;;6250635;28;20089;-67
2023/09/07 06:36:04;;;;;;;11.27;10.02;;;;;;;;;;6251824;28;20044;-67
2023/09/07 06:39:07;;;;;;;10.82;8.25;;;;;;;;;;6257314;28;20063;-67
2023/09/07 06:42:12;;;;;;;12.77;8.70;;;;;;;;;;6252274;28;20049;-66
2023/09/07 06:45:35;;;;;;;11.68;8.63;;;;;;;;;;6248421;28;20045;-66
2023/09/07 06:48:38;;;;;;;11.68;6.95;;;;;;;;;;6287504;28;20041;-67
2023/09/07 06:51:41;;;;;;;11.35;7.82;;;;;;;;;;6262946;28;20056;-66
2023/09/07 06:54:43;;;;;;;13.00;6.57;;;;;;;;;;6246519;28;20048;-67
2023/09/07 06:57:46;;;;;;;10.27;7.40;;;;;;;;;;6261278;28;20504;-67
2023/09/07 07:00:48;;;;;;;13.60;7.95;;;;;;;;;;6258099;28;20041;-67
2023/09/07 07:03:51;;;;;;;10.75;8.00;;;;;;;;;;6264167;28;20085;-66
2023/09/07 07:06:53;;;;;;;10.55;7.68;;;;;;;;;;6260773;28;20443;-67
2023/09/07 07:09:56;;;;;;;9.73;6.35;;;;;;;;;;6262566;28;20770;-66
2023/09/07 07:12:59;;;;;;;12.00;6.70;;;;;;;;;;6261610;28;20057;-67
2023/09/07 07:16:03;;;;;;;11.55;6.85;;;;;;;;;;6262828;28;20037;-67
2023/09/07 07:19:07;;;;;;;14.32;7.22;;;;;;;;;;6261639;28;20044;-67
2023/09/07 07:22:09;;;;;;;11.07;6.85;;;;;;;;;;6262307;28;20170;-67
2023/09/07 07:25:11;;;;;;;9.35;6.70;;;;;;;;;;6261459;28;20056;-67
2023/09/07 07:28:13;;;;;;;10.93;6.88;;;;;;;;;;6263208;28;20048;-68
2023/09/07 07:31:16;;;;;;;7.53;4.68;;;;;;;;;;6246486;28;20041;-68
2023/09/07 07:34:20;;;;;;;12.68;5.15;;;;;;;;;;6263455;28;20121;-67
2023/09/07 07:37:24;;;;;;;6.70;4.13;;;;;;;;;;6278417;28;20037;-68
2023/09/07 07:40:26;;;;;;;7.30;4.40;;;;;;;;;;6263291;28;20535;-68
2023/09/07 07:43:28;;;;;;;7.25;4.18;;;;;;;;;;6275053;28;20569;-68
2023/09/07 07:46:31;;;;;;;6.15;3.55;;;;;;;;;;6261389;28;20533;-67
2023/09/07 07:49:35;;;;;;;8.77;3.97;;;;;;;;;;6261869;28;20049;-67
2023/09/07 07:52:38;;;;;;;6.55;4.30;;;;;;;;;;6263411;28;20443;-67
2023/09/07 07:55:40;;;;;;;6.78;3.53;;;;;;;;;;6262900;28;20675;-68
2023/09/07 07:58:47;;;;;;;6.50;4.30;;;;;;;;;;6268320;28;20041;-67
2023/09/07 08:01:50;;;;;;;6.97;5.07;;;;;;;;;;6253192;28;20659;-67
2023/09/07 08:04:52;;;;;;;6.90;4.18;;;;;;;;;;6261643;28;20052;-68
2023/09/07 08:07:56;;;;;;;8.13;4.30;;;;;;;;;;6261031;28;20049;-68
2023/09/07 08:11:00;;;;;;;5.00;2.95;;;;;;;;;;6261507;28;20543;-66
2023/09/07 08:14:03;;;;;;;9.85;4.00;;;;;;;;;;6254727;28;20052;-67
2023/09/07 08:17:07;;;;;;;7.88;3.58;;;;;;;;;;6252847;28;20409;-68
2023/09/07 08:20:11;;;;;;;11.85;4.10;;;;;;;;;;6251953;28;20084;-67
2023/09/07 08:23:13;;;;;;;6.97;3.85;;;;;;;;;;6251808;28;20421;-67
2023/09/07 08:26:15;;;;;;;6.15;3.90;;;;;;;;;;6257942;28;20045;-67
2023/09/07 08:29:20;;;;;;;6.07;3.55;;;;;;;;;;6254100;28;20049;-67
2023/09/07 08:32:22;;;;;;;7.60;4.28;;;;;;;;;;6259742;28;20103;-66
2023/09/07 08:35:27;;;;;;;6.88;4.05;;;;;;;;;;6251498;28;20056;-66
2023/09/07 08:38:30;;;;;;;6.10;3.75;;;;;;;;;;6253357;28;20174;-66
2023/09/07 08:41:46;;;;;;;5.97;4.05;;;;;;;;;;6259029;28;20056;-67
2023/09/07 08:45:06;;;;;;;8.82;3.53;;;;;;;;;;6259724;28;20061;-67
2023/09/07 08:48:10;;;;;;;7.32;3.90;;;;;;;;;;6255347;28;20055;-68
2023/09/07 08:51:15;;;;;;;7.30;3.70;;;;;;;;;;6277243;28;20060;-68
2023/09/07 08:54:17;;;;;;;7.32;5.10;;;;;;;;;;6260936;28;20060;-67
2023/09/07 08:57:21;;;;;;;7.72;3.97;;;;;;;;;;6272945;28;20065;-69
2023/09/07 09:00:23;;;;;;;6.47;3.65;;;;;;;;;;6256198;28;20053;-68
2023/09/07 09:03:27;;;;;;;11.45;3.53;;;;;;;;;;6262434;28;20053;-68
2023/09/07 09:06:29;;;;;;;5.50;3.38;;;;;;;;;;6261486;28;20045;-67
2023/09/07 09:09:32;;;;;;;6.22;3.45;;;;;;;;;;6258344;28;20077;-68
2023/09/07 09:12:34;;;;;;;7.78;4.22;;;;;;;;;;6261520;28;20159;-67
2023/09/07 09:15:36;;;;;;;5.68;3.50;;;;;;;;;;6260265;28;20049;-67
2023/09/07 09:18:52;;;;;;;6.40;4.25;;;;;;;;;;6260734;28;20044;-67
2023/09/07 09:21:56;;;;;;;9.50;4.28;;;;;;;;;;6261370;28;20041;-67
2023/09/07 09:25:04;;;;;;;6.43;3.53;;;;;;;;;;6260587;28;20056;-68
2023/09/07 09:28:08;;;;;;;8.07;4.00;;;;;;;;;;6250229;28;20191;-67
2023/09/07 09:31:12;;;;;;;5.47;3.83;;;;;;;;;;6245718;28;20087;-67
2023/09/07 09:34:15;;;;;;;7.40;3.53;;;;;;;;;;6254541;28;20563;-68
2023/09/07 09:37:19;;;;;;;6.53;3.67;;;;;;;;;;6258531;28;20072;-67
2023/09/07 09:40:21;;;;;;;8.18;3.88;;;;;;;;;;6270376;28;20053;-69
2023/09/07 09:43:25;;;;;;;7.80;4.50;;;;;;;;;;6253037;28;20045;-69
2023/09/07 09:46:27;;;;;;;8.30;4.28;;;;;;;;;;6256306;28;20045;-69
2023/09/07 09:49:31;;;;;;;7.05;4.20;;;;;;;;;;6272848;28;20134;-70
2023/09/07 09:52:36;;;;;;;9.15;4.13;;;;;;;;;;6247736;28;20037;-68
2023/09/07 09:55:38;;;;;;;6.45;4.22;;;;;;;;;;6256530;28;20072;-70
2023/09/07 09:58:42;;;;;;;7.85;3.95;;;;;;;;;;6257651;28;20045;-69
2023/09/07 10:01:45;;;;;;;6.97;3.60;;;;;;;;;;6254362;28;20578;-69
2023/09/07 10:04:47;;;;;;;10.10;4.53;;;;;;;;;;6264622;28;20053;-68
2023/09/07 10:07:50;;;;;;;7.30;4.15;;;;;;;;;;6246849;28;20524;-68
2023/09/07 10:10:53;;;;;;;10.13;4.32;;;;;;;;;;6259108;28;20052;-69
2023/09/07 10:13:59;;;;;;;6.25;3.55;;;;;;;;;;6253869;28;20124;-68
2023/09/07 10:17:04;;;;;;;6.57;3.80;;;;;;;;;;6255836;28;20052;-68
2023/09/07 10:20:08;;;;;;;9.82;6.00;;;;;;;;;;6259647;28;20675;-68
2023/09/07 10:23:10;;;;;;;9.98;4.60;;;;;;;;;;6261988;28;20252;-68
2023/09/07 10:26:16;;;;;;;5.32;3.60;;;;;;;;;;6252604;28;20053;-68
2023/09/07 10:29:19;;;;;;;4.85;3.13;;;;;;;;;;6251664;28;20140;-69
2023/09/07 10:32:21;;;;;;;7.22;4.10;;;;;;;;;;6259495;28;20059;-68
2023/09/07 10:35:25;;;;;;;7.13;3.20;;;;;;;;;;6243975;28;20053;-69
2023/09/07 10:38:27;;;;;;;6.88;4.20;;;;;;;;;;6251977;28;20069;-68
2023/09/07 10:41:40;;;;;;;8.63;3.95;;;;;;;;;;6260469;28;20084;-69
2023/09/07 10:44:42;;;;;;;5.60;3.83;;;;;;;;;;6261433;28;20055;-68
2023/09/07 10:47:45;;;;;;;7.68;3.75;;;;;;;;;;6262744;28;20044;-68
2023/09/07 10:50:48;;;;;;;5.38;3.17;;;;;;;;;;6254748;28;20056;-68
2023/09/07 10:53:50;;;;;;;5.30;3.58;;;;;;;;;;6263352;28;20214;-68
2023/09/07 10:56:53;;;;;;;9.45;3.72;;;;;;;;;;6264163;28;20037;-68
2023/09/07 10:59:55;;;;;;;8.52;3.80;;;;;;;;;;6260804;28;20052;-68
2023/09/07 11:02:57;;;;;;;8.05;3.85;;;;;;;;;;6263705;28;20131;-68
2023/09/07 11:06:04;;;;;;;8.63;3.85;;;;;;;;;;6264445;28;20060;-69
2023/09/07 11:09:10;;;;;;;7.22;3.88;;;;;;;;;;6277727;28;20464;-68
2023/09/07 11:12:15;;;;;;;5.50;3.30;;;;;;;;;;6263913;28;20052;-68
2023/09/07 11:15:18;;;;;;;6.15;3.50;;;;;;;;;;6245108;28;20182;-70
2023/09/07 11:18:22;;;;;;;6.03;3.40;;;;;;;;;;6263197;28;20046;-69
2023/09/07 11:21:24;;;;;;;6.03;2.97;;;;;;;;;;6263515;28;20043;-70
2023/09/07 11:24:27;;;;;;;8.60;3.03;;;;;;;;;;6249944;28;20041;-69
2023/09/07 11:27:30;;;;;;;4.45;2.53;;;;;;;;;;6257987;28;20033;-68
2023/09/07 11:30:33;;;;;;;6.78;2.80;;;;;;;;;;6249684;28;20803;-69
2023/09/07 11:33:35;;;;;;;8.73;2.65;;;;;;;;;;6253664;28;20556;-68
2023/09/07 11:36:37;;;;;;;7.40;3.10;;;;;;;;;;6257645;28;20076;-68
2023/09/07 11:39:40;;;;;;;6.13;3.28;;;;;;;;;;6255903;28;20057;-68
2023/09/07 11:42:42;;;;;;;4.40;2.60;;;;;;;;;;6254656;28;20576;-69
2023/09/07 11:45:45;;;;;;;5.30;3.17;;;;;;;;;;6252597;28;20045;-68
2023/09/07 11:48:48;;;;;;;5.22;3.92;;;;;;;;;;6260261;28;20130;-68
2023/09/07 11:51:50;;;;;;;6.35;2.10;;;;;;;;;;6262344;28;20680;-68
2023/09/07 11:54:52;;;;;;;5.72;3.75;;;;;;;;;;6262447;28;20455;-69
2023/09/07 11:57:54;;;;;;;4.85;2.90;;;;;;;;;;6264812;28;20082;-69
2023/09/07 12:00:56;;;;;;;7.07;2.78;;;;;;;;;;6262274;28;20081;-71
2023/09/07 12:03:58;;;;;;;4.32;2.70;;;;;;;;;;6261087;28;20765;-70
2023/09/07 12:07:00;;;;;;;5.38;3.10;;;;;;;;;;6262699;28;20123;-67
2023/09/07 12:10:03;;;;;;;6.30;2.92;;;;;;;;;;6262265;28;20064;-70
2023/09/07 12:13:05;;;;;;;5.18;2.65;;;;;;;;;;6277639;28;20052;-70
2023/09/07 12:16:08;;;;;;;4.63;2.67;;;;;;;;;;6261080;28;20045;-72
2023/09/07 12:19:11;;;;;;;6.22;3.30;;;;;;;;;;6291654;28;20048;-70
2023/09/07 12:22:13;;;;;;;7.57;4.05;;;;;;;;;;6261769;28;20143;-69
2023/09/07 12:25:15;;;;;;;5.50;2.88;;;;;;;;;;6257944;28;20045;-70
2023/09/07 12:28:21;;;;;;;5.97;3.00;;;;;;;;;;6261947;28;20630;-69
2023/09/07 12:31:23;;;;;;;6.45;2.95;;;;;;;;;;6255927;28;20168;-69
2023/09/07 12:34:25;;;;;;;7.45;3.22;;;;;;;;;;6260066;28;20127;-69
2023/09/07 12:37:27;;;;;;;7.80;2.60;;;;;;;;;;6261572;28;20091;-68
2023/09/07 12:40:30;;;;;;;6.43;3.13;;;;;;;;;;6261093;28;20427;-68
2023/09/07 12:43:33;;;;;;;4.85;2.67;;;;;;;;;;6261602;28;20102;-68
2023/09/07 12:46:37;;;;;;;6.47;3.05;;;;;;;;;;6258946;28;20519;-67
2023/09/07 12:49:40;;;;;;;7.28;2.97;;;;;;;;;;6262618;28;20139;-68
2023/09/07 12:52:42;;;;;;;5.68;3.00;;;;;;;;;;6260904;28;20079;-68
2023/09/07 12:55:44;;;;;;;6.18;3.40;;;;;;;;;;6260911;28;20048;-68
2023/09/07 12:58:46;;;;;;;5.00;2.67;;;;;;;;;;6260947;28;20040;-66
2023/09/07 13:01:48;;;;;;;5.15;2.80;;;;;;;;;;6260188;28;20773;-67
2023/09/07 13:04:50;;;;;;;9.10;3.08;;;;;;;;;;6260769;28;20049;-67
2023/09/07 13:07:54;;;;;;;7.45;3.03;;;;;;;;;;6262122;28;20489;-68
2023/09/07 13:10:59;;;;;;;6.07;3.55;;;;;;;;;;6257528;28;20049;-68
2023/09/07 13:14:01;;;;;;;7.57;3.80;;;;;;;;;;6256337;28;20126;-68
2023/09/07 13:17:16;;;;;;;5.95;3.08;;;;;;;;;;6250484;28;20118;-68
2023/09/07 13:20:19;;;;;;;6.28;2.80;;;;;;;;;;6261766;28;20516;-68
2023/09/07 13:23:21;;;;;;;5.45;2.60;;;;;;;;;;6260251;28;20406;-68
2023/09/07 13:26:23;;;;;;;4.90;2.97;;;;;;;;;;6261337;28;20065;-68
2023/09/07 13:29:26;;;;;;;5.97;3.63;;;;;;;;;;6261442;28;20413;-68
2023/09/07 13:32:28;;;;;;;4.80;3.00;;;;;;;;;;6261594;28;20047;-68
2023/09/07 13:35:30;;;;;;;4.80;2.83;;;;;;;;;;6261961;28;20049;-68
2023/09/07 13:38:32;;;;;;;7.90;3.33;;;;;;;;;;6261325;28;20724;-68
2023/09/07 13:41:35;;;;;;;6.40;2.97;;;;;;;;;;6261660;28;20057;-68
2023/09/07 13:59:19;;;;;;;8.25;5.05;;;;;;;;;;6350490;27;21256;-67
2023/09/07 14:02:21;;;;;;;11.05;4.45;;;;;;;;;;6342214;28;20047;-68
2023/09/07 14:05:23;;;;;;;5.97;3.70;;;;;;;;;;6356400;27;20058;-67
2023/09/07 14:08:26;;;;;;;6.40;5.03;;;;;;;;;;6356768;27;20604;-67
2023/09/07 14:11:28;;;;;;;11.90;4.32;;;;;;;;;;6356236;28;20078;-68
2023/09/07 14:14:30;;;;;;;6.78;3.58;;;;;;;;;;6351860;27;20062;-67
2023/09/07 14:17:32;;;;;;;7.07;3.70;;;;;;;;;;6342334;28;20034;-68
2023/09/07 14:20:34;;;;;;;8.20;5.38;;;;;;;;;;6342863;27;20441;-67
2023/09/07 14:23:37;;;;;;;9.20;3.65;;;;;;;;;;6356780;27;20050;-65
2023/09/07 14:26:39;;;;;;;8.98;3.90;;;;;;;;;;6352299;27;20036;-66
2023/09/07 14:29:41;;;;;;;6.47;3.80;;;;;;;;;;6353143;27;20590;-66
2023/09/07 14:32:45;;;;;;;4.82;3.78;;;;;;;;;;6347143;27;20048;-66
2023/09/07 14:35:51;;;;;;;11.23;3.55;;;;;;;;;;6345008;28;20508;-65
2023/09/07 14:38:53;;;;;;;7.38;3.80;;;;;;;;;;6353849;28;20122;-65
2023/09/07 14:41:55;;;;;;;5.50;3.35;;;;;;;;;;6337469;27;20046;-65
2023/09/07 14:44:59;;;;;;;4.72;3.25;;;;;;;;;;6355263;28;20148;-65
2023/09/07 14:48:02;;;;;;;4.72;2.65;;;;;;;;;;6348435;27;20153;-65
2023/09/07 14:51:04;;;;;;;8.65;4.30;;;;;;;;;;6343494;28;20039;-65
2023/09/07 14:54:06;;;;;;;6.13;3.22;;;;;;;;;;6339277;27;20074;-66
2023/09/07 14:57:08;;;;;;;7.03;3.97;;;;;;;;;;6343626;28;20052;-65
2023/09/07 15:00:11;;;;;;;6.18;4.05;;;;;;;;;;6336101;27;20208;-65
2023/09/07 15:03:13;;;;;;;6.55;4.05;;;;;;;;;;6321173;28;20044;-65
2023/09/07 15:06:17;;;;;;;5.65;3.95;;;;;;;;;;6329615;28;20051;-66
2023/09/07 15:09:19;;;;;;;5.20;3.70;;;;;;;;;;6337760;28;20071;-66
2023/09/07 15:12:22;;;;;;;6.95;3.80;;;;;;;;;;6324284;28;20047;-65
2023/09/07 15:15:25;;;;;;;5.53;3.20;;;;;;;;;;6336103;28;20048;-65
2023/09/07 15:18:27;;;;;;;5.50;4.07;;;;;;;;;;6337670;28;20040;-65
2023/09/07 15:21:29;;;;;;;6.53;3.75;;;;;;;;;;6334648;28;20070;-65
2023/09/07 15:24:31;;;;;;;6.50;4.10;;;;;;;;;;6338874;28;20050;-65
2023/09/07 15:27:33;;;;;;;5.90;4.45;;;;;;;;;;6333092;28;20189;-65
2023/09/07 15:30:35;;;;;;;5.85;3.72;;;;;;;;;;6322177;28;20088;-64
2023/09/07 15:33:38;;;;;;;8.45;4.32;;;;;;;;;;6321212;28;20051;-72
2023/09/07 15:36:42;;;;;;;6.63;3.67;;;;;;;;;;6327062;28;20040;-72
2023/09/07 15:39:44;;;;;;;6.50;4.43;;;;;;;;;;6323189;28;20507;-67
2023/09/07 15:42:47;;;;;;;5.28;4.30;;;;;;;;;;6320026;27;20048;-67
2023/09/07 15:45:49;;;;;;;5.95;3.85;;;;;;;;;;6320654;28;20127;-64
2023/09/07 15:48:52;;;;;;;7.32;3.90;;;;;;;;;;6325258;28;20533;-69
2023/09/07 15:51:54;;;;;;;6.97;4.30;;;;;;;;;;6326335;28;20051;-76
2023/09/07 15:54:56;;;;;;;6.90;3.90;;;;;;;;;;6301187;28;20111;-75
2023/09/07 15:58:00;;;;;;;8.68;3.85;;;;;;;;;;6310623;28;20040;-74
2023/09/07 16:01:03;;;;;;;7.93;4.32;;;;;;;;;;6322866;28;20039;-76
2023/09/07 16:04:05;;;;;;;7.72;5.95;;;;;;;;;;6325679;28;20500;-76
2023/09/07 16:07:07;;;;;;;11.20;4.47;;;;;;;;;;6327070;28;20032;-76
2023/09/07 16:10:10;;;;;;;5.43;4.05;;;;;;;;;;6332357;28;20055;-76
2023/09/07 16:13:12;;;;;;;5.75;4.07;;;;;;;;;;6328770;28;20040;-75
2023/09/07 16:16:15;;;;;;;6.78;4.28;;;;;;;;;;6322536;28;20181;-75
2023/09/07 16:19:17;;;;;;;8.30;4.18;;;;;;;;;;6305238;28;20054;-75
2023/09/07 16:22:19;;;;;;;7.40;4.57;;;;;;;;;;6304666;28;20051;-76
2023/09/07 16:25:21;;;;;;;8.70;4.13;;;;;;;;;;6334877;28;20043;-76
2023/09/07 16:28:24;;;;;;;6.70;4.38;;;;;;;;;;6332505;28;20044;-76
2023/09/07 16:31:27;;;;;;;7.10;5.10;;;;;;;;;;6331678;28;20168;-74
2023/09/07 16:34:29;;;;;;;9.98;4.00;;;;;;;;;;6299636;28;20055;-76
2023/09/07 16:37:31;;;;;;;7.68;4.78;;;;;;;;;;6328402;28;20057;-76
2023/09/07 16:40:37;;;;;;;9.20;4.13;;;;;;;;;;6335210;28;20902;-76
2023/09/07 16:43:39;;;;;;;6.43;4.38;;;;;;;;;;6325862;28;20083;-70
2023/09/07 16:46:43;;;;;;;10.35;4.35;;;;;;;;;;6329855;28;20438;-69
2023/09/07 16:49:45;;;;;;;10.35;5.05;;;;;;;;;;6326697;28;20852;-74
2023/09/07 16:52:47;;;;;;;8.98;4.88;;;;;;;;;;6316617;28;20048;-76
2023/09/07 16:55:49;;;;;;;7.78;4.90;;;;;;;;;;6315589;28;20039;-73
2023/09/07 16:58:52;;;;;;;10.90;5.88;;;;;;;;;;6333712;28;20047;-73
2023/09/07 17:01:57;;;;;;;10.35;4.93;;;;;;;;;;6302170;28;20040;-74
2023/09/07 17:04:59;;;;;;;7.55;4.88;;;;;;;;;;6323684;28;20044;-74
2023/09/07 17:08:03;;;;;;;7.70;4.63;;;;;;;;;;6310618;28;20135;-73
2023/09/07 17:11:06;;;;;;;6.85;4.35;;;;;;;;;;6316680;28;20040;-73
2023/09/07 17:14:08;;;;;;;7.07;4.57;;;;;;;;;;6323083;28;20090;-72
2023/09/07 17:17:11;;;;;;;8.38;4.65;;;;;;;;;;6319456;28;20046;-72
2023/09/07 17:20:13;;;;;;;9.18;5.22;;;;;;;;;;6319764;28;20846;-72
2023/09/07 17:23:16;;;;;;;13.90;7.10;;;;;;;;;;6319434;28;20055;-72
2023/09/07 17:26:18;;;;;;;10.13;5.05;;;;;;;;;;6321866;28;20108;-72
2023/09/07 17:29:20;;;;;;;6.30;4.93;;;;;;;;;;6305752;28;20044;-72
2023/09/07 17:32:22;;;;;;;7.40;4.35;;;;;;;;;;6316049;28;20046;-72
2023/09/07 17:35:24;;;;;;;7.25;4.65;;;;;;;;;;6303390;28;20108;-72
2023/09/07 17:38:26;;;;;;;7.53;5.88;;;;;;;;;;6325794;28;20040;-72
2023/09/07 17:41:34;;;;;;;13.63;5.63;;;;;;;;;;6324132;28;20043;-72
2023/09/07 17:44:37;;;;;;;6.18;4.60;;;;;;;;;;6310006;28;20433;-72
2023/09/07 17:47:39;;;;;;;11.60;6.63;;;;;;;;;;6334640;28;20040;-72
2023/09/07 17:50:41;;;;;;;9.57;6.07;;;;;;;;;;6331473;28;20042;-72
2023/09/07 17:53:45;;;;;;;16.08;6.22;;;;;;;;;;6324817;28;20051;-72
2023/09/07 17:56:47;;;;;;;9.60;6.05;;;;;;;;;;6324054;28;20043;-66
2023/09/07 17:59:49;;;;;;;10.45;6.70;;;;;;;;;;6325778;28;20070;-69
2023/09/07 18:03:00;;;;;;;11.23;6.82;;;;;;;;;;6318923;28;20078;-70
2023/09/07 18:06:02;;;;;;;9.65;6.07;;;;;;;;;;6323575;28;20126;-69
2023/09/07 18:09:08;;;;;;;8.00;5.50;;;;;;;;;;6323367;28;20131;-70
2023/09/07 18:12:11;;;;;;;6.30;4.57;;;;;;;;;;6325718;28;20490;-69
2023/09/07 18:15:13;;;;;;;7.10;6.03;;;;;;;;;;6322185;28;20328;-70
2023/09/07 18:18:15;;;;;;;6.10;4.47;;;;;;;;;;6323870;28;20059;-70
2023/09/07 18:21:18;;;;;;;6.53;4.30;;;;;;;;;;6315589;28;20055;-69
2023/09/07 18:24:20;;;;;;;6.63;4.10;;;;;;;;;;6329359;28;20047;-70